X  Chiuso Dati meteorologici dell'aviazione (METAR)     LIPX Verona-Villafranca Valerio Catullo Airport
Temperatura
13°C Temperatura
1°C Punto di rugiada
44% Umidità



Vento
14 KM/h
9 MPH
4 M/S
8 KTS



250°
OSO
Condizioni attuali

Chiaro Chiaro
Pressione 1019.92 (hPa) - 30.12 (inHg)
Visibilità 6.2 (miglio) - 10 (km)
Aeroporto
Codice-Aeroporto LIPX

Posizione: Verona-Villafranca Valerio Catullo Airport
Distanza: 14 (km)

Metar:
LIPX 021220Z AUTO 25008KT 9999 NCD 13/01 Q1020

Ore: 02-02-2023 13:20 CET